createdAt,value
2023-02-13T00:01:00.019Z,50.03
2023-02-13T00:03:26.545Z,54.37
2023-02-13T00:05:53.085Z,48.97
2023-02-13T00:08:19.575Z,59.17
2023-02-13T00:10:48.057Z,51.67
2023-02-13T00:13:14.557Z,60.30
2023-02-13T00:15:41.135Z,52.83
2023-02-13T00:18:07.679Z,53.40
2023-02-13T00:20:34.253Z,52.47
2023-02-13T00:23:00.803Z,47.27
2023-02-13T00:25:27.919Z,52.77
2023-02-13T00:27:54.558Z,49.67
2023-02-13T00:30:21.573Z,49.30
2023-02-13T00:32:50.982Z,49.90
2023-02-13T00:35:20.918Z,48.43
2023-02-13T00:37:49.588Z,53.03
2023-02-13T00:40:16.103Z,43.63
2023-02-13T00:42:42.573Z,51.33
2023-02-13T00:45:09.459Z,59.40
2023-02-13T00:47:35.881Z,57.50
2023-02-13T00:50:02.300Z,47.10
2023-02-13T00:52:28.785Z,53.60
2023-02-13T00:54:55.286Z,47.30
2023-02-13T00:57:21.721Z,53.70
2023-02-13T00:59:51.156Z,58.50
2023-02-13T01:02:20.382Z,53.47
2023-02-13T01:04:46.866Z,52.60
2023-02-13T01:07:15.274Z,52.83
2023-02-13T01:09:42.365Z,52.00
2023-02-13T01:12:08.826Z,57.67
2023-02-13T01:14:35.332Z,61.33
2023-02-13T01:17:01.855Z,49.77
2023-02-13T01:19:28.426Z,52.97
2023-02-13T01:21:54.913Z,55.57
2023-02-13T01:24:21.676Z,54.73
2023-02-13T01:26:48.116Z,50.20
2023-02-13T01:29:14.832Z,49.10
2023-02-13T01:31:41.404Z,48.20
2023-02-13T01:34:07.918Z,49.60
2023-02-13T01:36:34.525Z,51.70
2023-02-13T01:39:01.077Z,46.90
2023-02-13T01:41:27.791Z,57.50
2023-02-13T01:43:57.005Z,49.20
2023-02-13T01:46:35.377Z,51.93
2023-02-13T01:49:10.087Z,48.17
2023-02-13T01:51:37.365Z,55.80
2023-02-13T01:54:23.199Z,48.17
2023-02-13T01:56:59.155Z,50.07
2023-02-13T01:59:33.102Z,52.27
2023-02-13T02:02:00.698Z,50.47
2023-02-13T02:04:32.753Z,47.17
2023-02-13T02:07:04.619Z,49.07
2023-02-13T02:09:36.779Z,47.30
2023-02-13T02:12:11.624Z,55.83
2023-02-13T02:14:40.838Z,53.77
2023-02-13T02:17:07.577Z,47.27
2023-02-13T02:19:44.724Z,58.40
2023-02-13T02:22:36.090Z,60.87
2023-02-13T02:25:31.835Z,50.30
2023-02-13T02:28:10.246Z,50.93
2023-02-13T02:31:04.224Z,56.63
2023-02-13T02:33:56.361Z,46.70
2023-02-13T02:36:43.246Z,50.50
2023-02-13T02:39:49.932Z,46.43
2023-02-13T02:42:19.263Z,59.93
2023-02-13T02:45:21.833Z,57.53
2023-02-13T02:48:18.214Z,52.37
2023-02-13T02:51:07.168Z,50.23
2023-02-13T02:53:43.747Z,49.77
2023-02-13T02:56:21.432Z,47.03
2023-02-13T02:59:13.610Z,49.30
2023-02-13T03:02:00.371Z,54.83
2023-02-13T03:04:52.824Z,51.80
2023-02-13T03:07:19.797Z,55.13
2023-02-13T03:10:14.325Z,49.13
2023-02-13T03:13:05.876Z,52.83
2023-02-13T03:15:34.701Z,52.23
2023-02-13T03:18:20.042Z,52.83
2023-02-13T03:21:14.453Z,47.13
2023-02-13T03:24:16.130Z,52.90
2023-02-13T03:26:55.317Z,53.13
2023-02-13T03:30:01.054Z,53.27
2023-02-13T03:32:41.912Z,47.00
2023-02-13T03:35:30.771Z,43.87
2023-02-13T03:38:05.543Z,61.73
2023-02-13T03:41:03.304Z,52.63
2023-02-13T03:43:36.289Z,48.23
2023-02-13T03:46:03.987Z,49.27
2023-02-13T03:48:53.233Z,51.67
2023-02-13T03:51:26.571Z,44.63
2023-02-13T03:54:01.613Z,42.90
2023-02-13T03:56:50.909Z,52.50
2023-02-13T03:59:30.603Z,45.07
2023-02-13T04:02:08.508Z,48.83
2023-02-13T04:04:48.874Z,46.03
2023-02-13T04:07:31.752Z,40.70
2023-02-13T04:10:18.341Z,46.67
2023-02-13T04:13:08.073Z,46.27
2023-02-13T04:16:18.284Z,45.93
2023-02-13T04:18:45.460Z,38.37
2023-02-13T04:21:11.990Z,42.03
2023-02-13T04:23:38.414Z,46.20
2023-02-13T04:26:14.089Z,46.93
2023-02-13T04:28:40.671Z,47.33
2023-02-13T04:31:07.239Z,48.77
2023-02-13T04:33:33.701Z,41.00
2023-02-13T04:36:01.529Z,48.63
2023-02-13T04:38:28.044Z,44.47
2023-02-13T04:40:54.531Z,39.67
2023-02-13T04:43:21.168Z,44.30
2023-02-13T04:45:50.994Z,48.23
2023-02-13T04:48:17.752Z,45.10
2023-02-13T04:50:44.293Z,40.50
2023-02-13T04:53:10.872Z,45.07
2023-02-13T04:55:37.366Z,38.23
2023-02-13T04:58:03.858Z,39.13
2023-02-13T05:00:30.354Z,45.20
2023-02-13T05:03:07.730Z,31.93
2023-02-13T05:05:35.276Z,39.73
2023-02-13T05:08:04.776Z,34.03
2023-02-13T05:10:34.006Z,35.83
2023-02-13T05:13:00.462Z,31.87
2023-02-13T05:15:27.110Z,33.57
2023-02-13T05:17:53.653Z,31.30
2023-02-13T05:20:20.396Z,36.00
2023-02-13T05:23:10.850Z,34.60
2023-02-13T05:25:39.500Z,32.83
2023-02-13T05:28:26.707Z,36.83
2023-02-13T05:30:53.282Z,29.17
2023-02-13T05:33:19.732Z,26.13
2023-02-13T05:35:46.195Z,28.97
2023-02-13T05:38:12.645Z,30.57
2023-02-13T05:40:39.066Z,30.83
2023-02-13T05:43:05.887Z,30.90
2023-02-13T05:45:32.411Z,34.07
2023-02-13T05:47:58.817Z,39.80
2023-02-13T05:50:25.340Z,41.97
2023-02-13T05:52:51.758Z,63.40
2023-02-13T05:55:18.217Z,45.17
2023-02-13T05:57:44.831Z,28.07
2023-02-13T06:00:11.832Z,26.73
2023-02-13T06:02:38.318Z,23.80
2023-02-13T06:05:08.725Z,25.97
2023-02-13T06:07:38.261Z,23.63
2023-02-13T06:10:08.367Z,17.33
2023-02-13T06:12:38.212Z,22.00
2023-02-13T06:15:07.924Z,21.50
2023-02-13T06:17:37.249Z,16.73
2023-02-13T06:20:06.745Z,19.60
2023-02-13T06:22:33.220Z,21.43
2023-02-13T06:24:59.660Z,23.70
2023-02-13T06:27:26.113Z,20.37
2023-02-13T06:29:52.679Z,25.23
2023-02-13T06:32:19.113Z,22.33
2023-02-13T06:34:45.583Z,21.70
2023-02-13T06:37:12.185Z,23.93
2023-02-13T06:39:38.701Z,21.87
2023-02-13T06:42:08.288Z,18.83
2023-02-13T06:44:37.563Z,24.87
2023-02-13T06:47:06.429Z,20.17
2023-02-13T06:49:32.907Z,18.87
2023-02-13T06:51:59.556Z,21.17
2023-02-13T06:54:41.037Z,20.03
2023-02-13T06:57:11.420Z,18.93
2023-02-13T06:59:37.976Z,20.57
2023-02-13T07:02:07.176Z,22.77
2023-02-13T07:04:35.960Z,23.23
2023-02-13T07:07:02.471Z,19.70
2023-02-13T07:09:29.002Z,20.17
2023-02-13T07:11:55.485Z,19.40
2023-02-13T07:14:22.061Z,28.77
2023-02-13T07:16:48.633Z,19.33
2023-02-13T07:19:15.171Z,18.67
2023-02-13T07:21:41.677Z,16.57
2023-02-13T07:24:08.396Z,19.63
2023-02-13T07:26:38.974Z,19.13
2023-02-13T07:29:11.933Z,18.23
2023-02-13T07:31:39.770Z,16.77
2023-02-13T07:34:08.934Z,14.40
2023-02-13T07:36:38.035Z,14.70
2023-02-13T07:39:06.766Z,16.20
2023-02-13T07:41:35.129Z,18.27
2023-02-13T07:44:01.587Z,14.90
2023-02-13T07:46:28.091Z,13.50
2023-02-13T07:48:54.598Z,14.27
2023-02-13T07:51:25.189Z,10.23
2023-02-13T07:53:56.565Z,13.07
2023-02-13T07:56:23.152Z,12.07
2023-02-13T07:58:49.630Z,14.63
2023-02-13T08:01:17.243Z,13.97
2023-02-13T08:03:43.730Z,16.67
2023-02-13T08:06:10.335Z,14.17
2023-02-13T08:08:38.396Z,15.27
2023-02-13T08:11:41.050Z,13.38
2023-02-13T08:14:07.606Z,15.03
2023-02-13T08:16:36.263Z,14.23
2023-02-13T08:19:02.840Z,10.23
2023-02-13T08:21:30.377Z,15.48
2023-02-13T08:23:57.296Z,13.20
2023-02-13T08:26:23.762Z,13.95
2023-02-13T08:28:50.285Z,13.05
2023-02-13T08:31:16.834Z,12.38
2023-02-13T08:33:43.344Z,15.68
2023-02-13T08:36:09.907Z,14.15
2023-02-13T08:41:06.999Z,16.65
2023-02-13T08:43:36.058Z,15.25
2023-02-13T08:46:02.557Z,15.20
2023-02-13T08:48:30.140Z,13.00
2023-02-13T08:50:56.860Z,17.80
2023-02-13T08:53:23.501Z,12.07
2023-02-13T08:55:58.248Z,14.63
2023-02-13T08:58:25.095Z,12.55
2023-02-13T09:00:51.595Z,12.07
2023-02-13T09:03:18.960Z,11.90
2023-02-13T09:05:45.840Z,15.70
2023-02-13T09:08:13.685Z,14.65
2023-02-13T09:10:41.741Z,15.02
2023-02-13T09:13:08.256Z,10.60
2023-02-13T09:15:46.201Z,14.35
2023-02-13T09:18:12.666Z,12.80
2023-02-13T09:20:39.200Z,14.13
2023-02-13T09:23:09.442Z,12.70
2023-02-13T09:25:40.854Z,12.65
2023-02-13T09:28:07.696Z,13.68
2023-02-13T09:30:36.506Z,13.55
2023-02-13T09:33:02.996Z,24.40
2023-02-13T09:35:29.533Z,21.33
2023-02-13T09:37:56.085Z,30.40
2023-02-13T09:40:38.121Z,47.13
2023-02-13T09:43:15.489Z,54.97
2023-02-13T09:45:44.532Z,71.72
2023-02-13T09:48:19.221Z,72.05
2023-02-13T09:50:46.013Z,62.67
2023-02-13T09:53:24.250Z,61.50
2023-02-13T09:56:24.442Z,41.97
2023-02-13T09:59:01.080Z,39.90
2023-02-13T10:01:31.715Z,30.48
2023-02-13T10:04:23.019Z,34.42
2023-02-13T10:07:17.568Z,38.42
2023-02-13T10:10:01.007Z,43.10
2023-02-13T10:12:38.624Z,44.60
2023-02-13T10:15:20.676Z,69.22
2023-02-13T10:17:55.038Z,60.28
2023-02-13T10:20:32.640Z,60.97
2023-02-13T10:23:25.272Z,49.63
2023-02-13T10:26:02.501Z,48.15
2023-02-13T10:28:38.636Z,40.58
2023-02-13T10:31:12.753Z,45.30
2023-02-13T10:33:52.950Z,36.22
2023-02-13T10:36:25.193Z,36.70
2023-02-13T10:39:25.524Z,27.60
2023-02-13T10:41:57.777Z,28.45
2023-02-13T10:45:07.866Z,24.75
2023-02-13T10:47:40.380Z,29.38
2023-02-13T10:50:16.146Z,22.63
2023-02-13T10:52:57.737Z,19.60
2023-02-13T10:55:37.174Z,24.65
2023-02-13T10:58:18.882Z,26.00
2023-02-13T11:00:55.592Z,22.75
2023-02-13T11:03:26.203Z,20.58
2023-02-13T11:05:54.421Z,20.58
2023-02-13T11:08:25.529Z,21.17
2023-02-13T11:10:52.506Z,18.73
2023-02-13T11:13:24.372Z,22.50
2023-02-13T11:16:10.467Z,26.30
2023-02-13T11:18:44.236Z,18.67
2023-02-13T11:21:17.818Z,23.10
2023-02-13T11:23:45.919Z,24.27
2023-02-13T11:26:14.263Z,23.85
2023-02-13T11:28:54.555Z,24.38
2023-02-13T11:31:35.632Z,26.42
2023-02-13T11:34:25.534Z,19.17
2023-02-13T11:36:54.764Z,22.00
2023-02-13T11:39:23.043Z,25.58
2023-02-13T11:41:53.010Z,20.73
2023-02-13T11:44:31.202Z,20.02
2023-02-13T11:47:03.181Z,18.13
2023-02-13T11:49:39.558Z,22.60
2023-02-13T11:52:13.065Z,19.63
2023-02-13T11:54:44.370Z,25.52
2023-02-13T11:57:29.822Z,20.88
2023-02-13T11:59:56.905Z,18.67
2023-02-13T12:02:26.443Z,17.77
2023-02-13T12:05:13.981Z,21.35
2023-02-13T12:07:41.692Z,17.38
2023-02-13T12:10:31.360Z,16.60
2023-02-13T12:13:06.165Z,16.45
2023-02-13T12:15:37.228Z,15.75
2023-02-13T12:18:24.923Z,14.13
2023-02-13T12:21:00.740Z,15.60
2023-02-13T12:23:53.397Z,22.02
2023-02-13T12:26:42.900Z,13.82
2023-02-13T12:29:37.587Z,14.90
2023-02-13T12:32:28.851Z,15.60
2023-02-13T12:34:58.511Z,15.32
2023-02-13T12:37:43.412Z,15.35
2023-02-13T12:40:39.194Z,13.90
2023-02-13T12:43:27.197Z,13.52
2023-02-13T12:46:02.033Z,9.80
2023-02-13T12:48:34.485Z,16.80
2023-02-13T12:51:23.704Z,14.38
2023-02-13T12:54:11.685Z,13.48
2023-02-13T12:57:06.722Z,14.70
2023-02-13T13:00:02.959Z,12.05
2023-02-13T13:02:29.391Z,13.88
2023-02-13T13:05:17.084Z,11.13
2023-02-13T13:07:55.639Z,17.63
2023-02-13T13:11:08.376Z,12.73
2023-02-13T13:13:46.647Z,11.13
2023-02-13T13:16:28.456Z,11.50
2023-02-13T13:19:20.050Z,9.43
2023-02-13T13:22:01.042Z,8.65
2023-02-13T13:24:41.213Z,12.75
2023-02-13T13:27:39.365Z,8.30
2023-02-13T13:30:24.897Z,9.57
2023-02-13T13:33:12.565Z,10.15
2023-02-13T13:35:42.214Z,6.50
2023-02-13T13:38:19.596Z,9.77
2023-02-13T13:40:46.349Z,11.50
2023-02-13T13:43:21.550Z,7.63
2023-02-13T13:46:03.864Z,6.57
2023-02-13T13:48:47.646Z,8.60
2023-02-13T13:51:17.737Z,10.63
2023-02-13T13:53:59.506Z,6.55
2023-02-13T13:56:54.034Z,7.93
2023-02-13T13:59:51.877Z,14.10
2023-02-13T14:02:18.864Z,7.90
2023-02-13T14:05:13.920Z,10.07
2023-02-13T14:07:41.901Z,8.50
2023-02-13T14:10:29.081Z,8.50
2023-02-13T14:12:55.509Z,9.95
2023-02-13T14:15:34.427Z,7.50
2023-02-13T14:18:12.110Z,5.95
2023-02-13T14:20:50.355Z,7.22
2023-02-13T14:23:42.278Z,7.70
2023-02-13T14:26:18.217Z,8.48
2023-02-13T14:28:51.228Z,5.35
2023-02-13T14:31:34.474Z,8.63
2023-02-13T14:34:12.138Z,6.25
2023-02-13T14:36:47.958Z,7.45
2023-02-13T14:39:33.522Z,22.58
2023-02-13T14:42:04.916Z,9.15
2023-02-13T14:44:44.581Z,8.35
2023-02-13T14:47:21.990Z,7.72
2023-02-13T14:49:50.208Z,6.03
2023-02-13T14:52:27.644Z,6.22
2023-02-13T14:55:03.059Z,13.50
2023-02-13T14:57:39.330Z,9.57
2023-02-13T15:00:45.685Z,6.88
2023-02-13T15:03:17.721Z,5.35
2023-02-13T15:05:52.198Z,9.50
2023-02-13T15:08:26.591Z,6.90
2023-02-13T15:10:55.514Z,6.10
2023-02-13T15:13:23.720Z,7.32
2023-02-13T15:15:58.852Z,5.00
2023-02-13T15:18:30.315Z,9.70
2023-02-13T15:21:00.279Z,6.38
2023-02-13T15:23:31.475Z,6.50
2023-02-13T15:26:03.313Z,6.28
2023-02-13T15:28:30.396Z,5.13
2023-02-13T15:30:58.803Z,7.75
2023-02-13T15:33:51.212Z,8.80
2023-02-13T15:36:25.440Z,8.27
2023-02-13T15:39:11.390Z,5.10
2023-02-13T15:41:43.689Z,7.07
2023-02-13T15:44:18.293Z,10.07
2023-02-13T15:46:48.328Z,5.38
2023-02-13T15:49:21.658Z,7.45
2023-02-13T15:51:49.220Z,9.55
2023-02-13T15:54:27.677Z,11.13
2023-02-13T15:56:57.909Z,8.13
2023-02-13T15:59:29.072Z,8.00
2023-02-13T16:01:55.952Z,6.75
2023-02-13T16:04:23.085Z,9.23
2023-02-13T16:06:51.971Z,9.05
2023-02-13T16:09:32.814Z,8.13
2023-02-13T16:12:17.137Z,11.27
2023-02-13T16:14:59.947Z,12.70
2023-02-13T16:17:29.128Z,7.72
2023-02-13T16:20:01.617Z,10.38
2023-02-13T16:22:30.571Z,8.88
2023-02-13T16:25:12.366Z,8.57
2023-02-13T16:28:00.037Z,8.45
2023-02-13T16:30:39.915Z,12.10
2023-02-13T16:33:15.469Z,8.18
2023-02-13T16:35:45.457Z,10.73
2023-02-13T16:38:42.614Z,9.73
2023-02-13T16:41:17.872Z,9.23
2023-02-13T16:43:55.508Z,10.65
2023-02-13T16:46:29.610Z,9.73
2023-02-13T16:48:56.131Z,12.50
2023-02-13T16:51:39.474Z,10.38
2023-02-13T16:54:17.992Z,11.55
2023-02-13T16:56:48.012Z,13.80
2023-02-13T16:59:17.468Z,12.63
2023-02-13T17:01:44.270Z,10.38
2023-02-13T17:04:22.378Z,14.15
2023-02-13T17:06:54.940Z,14.00
2023-02-13T17:09:22.441Z,15.90
2023-02-13T17:11:53.683Z,12.60
2023-02-13T17:14:20.699Z,14.77
2023-02-13T17:16:48.694Z,15.77
2023-02-13T17:19:17.585Z,12.90
2023-02-13T17:21:44.168Z,11.90
2023-02-13T17:24:17.960Z,16.48
2023-02-13T17:26:44.446Z,13.65
2023-02-13T17:29:10.970Z,15.38
2023-02-13T17:31:40.151Z,16.48
2023-02-13T17:34:06.791Z,13.48
2023-02-13T17:36:33.353Z,14.68
2023-02-13T17:38:59.870Z,17.45
2023-02-13T17:41:26.346Z,13.77
2023-02-13T17:43:52.833Z,17.00
2023-02-13T17:46:19.685Z,14.23
2023-02-13T17:48:46.217Z,11.27
2023-02-13T17:51:14.350Z,15.35
2023-02-13T17:53:40.883Z,15.18
2023-02-13T17:56:11.515Z,13.35
2023-02-13T17:58:38.872Z,13.90
2023-02-13T18:01:05.530Z,18.50
2023-02-13T18:03:32.020Z,16.50
2023-02-13T18:05:59.946Z,18.38
2023-02-13T18:08:26.414Z,15.05
2023-02-13T18:10:52.850Z,15.52
2023-02-13T18:13:22.411Z,19.92
2023-02-13T18:15:48.908Z,16.45
2023-02-13T18:18:16.247Z,12.25
2023-02-13T18:20:48.746Z,16.73
2023-02-13T18:23:17.054Z,20.33
2023-02-13T18:25:43.536Z,16.80
2023-02-13T18:28:12.948Z,18.30
2023-02-13T18:30:42.879Z,19.52
2023-02-13T18:33:12.114Z,21.75
2023-02-13T18:35:41.385Z,18.58
2023-02-13T18:38:09.888Z,21.55
2023-02-13T18:40:36.368Z,22.13
2023-02-13T18:43:02.932Z,16.35
2023-02-13T18:45:29.653Z,20.77
2023-02-13T18:47:59.286Z,18.48
2023-02-13T18:50:25.788Z,19.92
2023-02-13T18:52:52.333Z,17.60
2023-02-13T18:55:18.771Z,17.58
2023-02-13T18:57:45.570Z,15.82
2023-02-13T19:00:15.501Z,17.02
2023-02-13T19:02:42.145Z,21.35
2023-02-13T19:05:13.036Z,19.15
2023-02-13T19:07:42.607Z,19.75
2023-02-13T19:10:15.714Z,24.17
2023-02-13T19:12:42.587Z,15.43
2023-02-13T19:15:13.426Z,19.65
2023-02-13T19:17:42.973Z,17.65
2023-02-13T19:20:14.405Z,19.70
2023-02-13T19:22:43.104Z,19.40
2023-02-13T19:25:11.458Z,18.02
2023-02-13T19:27:57.007Z,14.35
2023-02-13T19:30:25.465Z,17.80
2023-02-13T19:32:54.385Z,14.60
2023-02-13T19:35:21.078Z,22.20
2023-02-13T19:37:49.153Z,15.35
2023-02-13T19:40:15.742Z,15.88
2023-02-13T19:42:45.101Z,17.15
2023-02-13T19:45:14.576Z,17.35
2023-02-13T19:47:44.209Z,14.77
2023-02-13T19:50:16.554Z,16.20
2023-02-13T19:52:46.479Z,17.00
2023-02-13T19:55:13.205Z,17.98
2023-02-13T19:57:39.783Z,21.65
2023-02-13T20:00:09.341Z,18.60
2023-02-13T20:02:37.945Z,17.83
2023-02-13T20:05:08.784Z,21.10
2023-02-13T20:07:35.318Z,18.35
2023-02-13T20:10:01.872Z,15.45
2023-02-13T20:12:28.488Z,19.70
2023-02-13T20:14:56.589Z,17.25
2023-02-13T20:17:23.188Z,20.13
2023-02-13T20:19:51.520Z,21.52
2023-02-13T20:22:19.300Z,23.02
2023-02-13T20:24:47.174Z,21.70
2023-02-13T20:27:14.311Z,20.80
2023-02-13T20:29:45.023Z,19.70
2023-02-13T20:32:14.582Z,23.10
2023-02-13T20:34:58.753Z,17.38
2023-02-13T20:37:26.210Z,20.40
2023-02-13T20:39:52.648Z,19.90
2023-02-13T20:42:19.128Z,22.48
2023-02-13T20:44:46.771Z,22.13
2023-02-13T20:47:13.240Z,18.33
2023-02-13T20:49:42.113Z,23.00
2023-02-13T20:52:08.826Z,19.10
2023-02-13T20:54:35.288Z,20.38
2023-02-13T20:57:01.788Z,22.73
2023-02-13T20:59:28.398Z,21.27
2023-02-13T21:01:54.867Z,19.02
2023-02-13T21:04:21.358Z,19.70
2023-02-13T21:06:48.608Z,20.73
2023-02-13T21:09:15.439Z,20.58
2023-02-13T21:11:45.212Z,23.20
2023-02-13T21:14:14.820Z,20.80
2023-02-13T21:16:44.046Z,25.00
2023-02-13T21:19:17.203Z,24.67
2023-02-13T21:21:44.323Z,25.33
2023-02-13T21:24:18.432Z,29.08
2023-02-13T21:26:46.774Z,20.67
2023-02-13T21:29:13.484Z,29.95
2023-02-13T21:31:49.458Z,22.45
2023-02-13T21:34:17.397Z,19.52
2023-02-13T21:36:44.335Z,22.00
2023-02-13T21:39:14.729Z,22.17
2023-02-13T21:41:45.332Z,30.48
2023-02-13T21:44:17.362Z,23.98
2023-02-13T21:46:45.064Z,22.10
2023-02-13T21:49:17.539Z,25.50
2023-02-13T21:51:45.116Z,25.35
2023-02-13T21:54:14.874Z,24.60
2023-02-13T21:56:43.504Z,23.40
2023-02-13T21:59:20.140Z,19.77
2023-02-13T22:01:54.923Z,20.52
2023-02-13T22:04:21.535Z,20.38
2023-02-13T22:06:51.004Z,21.73
2023-02-13T22:09:26.979Z,21.42
2023-02-13T22:11:54.978Z,19.83
2023-02-13T22:14:22.317Z,22.77
2023-02-13T22:16:51.301Z,22.70
2023-02-13T22:19:18.284Z,27.37
2023-02-13T22:21:45.196Z,19.77
2023-02-13T22:24:14.963Z,20.37
2023-02-13T22:26:47.211Z,19.93
2023-02-13T22:29:17.943Z,22.63
2023-02-13T22:31:47.889Z,27.63
2023-02-13T22:34:17.936Z,19.10
2023-02-13T22:36:45.723Z,22.63
2023-02-13T22:39:13.679Z,25.13
2023-02-13T22:41:41.007Z,23.47
2023-02-13T22:44:07.698Z,23.47
2023-02-13T22:46:35.131Z,22.77
2023-02-13T22:49:02.465Z,20.97
2023-02-13T22:51:35.073Z,20.33
2023-02-13T22:54:02.510Z,22.23
2023-02-13T22:56:30.937Z,25.97
2023-02-13T22:58:58.857Z,19.53
2023-02-13T23:01:27.338Z,28.33
2023-02-13T23:03:54.568Z,26.63
2023-02-13T23:06:21.904Z,25.70
2023-02-13T23:08:53.407Z,20.40
2023-02-13T23:11:43.152Z,25.33
2023-02-13T23:14:10.316Z,20.60
2023-02-13T23:16:58.157Z,26.50
2023-02-13T23:19:25.530Z,20.57
2023-02-13T23:21:52.010Z,17.60
2023-02-13T23:24:18.636Z,21.37
2023-02-13T23:26:47.594Z,23.73
2023-02-13T23:29:14.043Z,25.07
2023-02-13T23:31:40.593Z,18.67
2023-02-13T23:34:07.348Z,18.40
2023-02-13T23:36:34.813Z,19.57
2023-02-13T23:39:01.300Z,18.90
2023-02-13T23:41:28.764Z,22.40
2023-02-13T23:43:55.347Z,17.47
2023-02-13T23:46:21.998Z,17.40
2023-02-13T23:48:51.662Z,19.03
2023-02-13T23:51:23.464Z,23.80
2023-02-13T23:53:49.993Z,26.10
2023-02-13T23:56:18.616Z,21.80
2023-02-13T23:58:45.094Z,23.83
